Terminal Aerodrome Forecast
Issued by NWS

Home | Current Version | Previous Version | Graphics & Text | Print | Product List | Glossary On
Versions: 1 2 3 4 5 6 7 8 9 10 11 12 13 14 15 16 17 18 19 20
002
FTUS43 KMPX 071723
TAFAXN
TAF
KAXN 071723Z 0718/0818 30022G32KT 6SM -SN BLSN BKN020 OVC035
     FM072000 31028G40KT 2SM -SN BLSN SCT006 OVC012
      TEMPO 0720/0724 3/4SM -SN BLSN
     FM080000 32030G40KT 1SM -SN BLSN OVC009
     FM080900 33025G33KT 1SM BLSN OVC015=

USA.gov is the U.S. government's official web portal to all federal, state and local government web resources and services.